createdAt,value
2022-11-28T00:01:43.423Z,3.04
2022-11-28T00:04:12.975Z,3.05
2022-11-28T00:06:46.031Z,3.05
2022-11-28T00:09:15.428Z,3.06
2022-11-28T00:11:46.885Z,3.06
2022-11-28T00:14:17.879Z,3.06
2022-11-28T00:16:47.082Z,3.09
2022-11-28T00:19:16.173Z,3.09
2022-11-28T00:21:44.809Z,3.10
2022-11-28T00:24:13.346Z,3.11
2022-11-28T00:26:42.419Z,3.11
2022-11-28T00:29:11.772Z,3.08
2022-11-28T00:31:44.899Z,3.04
2022-11-28T00:34:15.495Z,2.98
2022-11-28T00:36:46.604Z,2.95
2022-11-28T00:39:17.006Z,2.89
2022-11-28T00:41:45.807Z,2.83
2022-11-28T00:44:14.493Z,2.78
2022-11-28T00:46:43.361Z,2.72
2022-11-28T00:49:12.064Z,2.67
2022-11-28T00:51:40.729Z,2.62
2022-11-28T00:54:10.609Z,2.57
2022-11-28T00:56:40.831Z,2.52
2022-11-28T00:59:09.477Z,2.47
2022-11-28T01:01:43.923Z,2.42
2022-11-28T01:04:16.288Z,2.36
2022-11-28T01:06:50.790Z,2.31
2022-11-28T01:09:22.903Z,2.26
2022-11-28T01:11:53.836Z,2.21
2022-11-28T01:14:25.807Z,2.16
2022-11-28T01:16:54.391Z,2.14
2022-11-28T01:19:22.936Z,2.10
2022-11-28T01:21:51.541Z,2.07
2022-11-28T01:24:20.101Z,2.03
2022-11-28T01:26:48.699Z,1.99
2022-11-28T01:29:17.212Z,1.96
2022-11-28T01:31:45.835Z,1.92
2022-11-28T01:34:14.546Z,1.86
2022-11-28T01:36:43.081Z,1.82
2022-11-28T01:39:12.353Z,1.76
2022-11-28T01:41:41.070Z,1.73
2022-11-28T01:44:15.794Z,1.68
2022-11-28T01:46:44.537Z,1.65
2022-11-28T01:49:19.089Z,1.62
2022-11-28T01:51:52.712Z,1.60
2022-11-28T01:54:25.580Z,1.56
2022-11-28T01:57:02.220Z,1.53
2022-11-28T01:59:35.862Z,1.49
2022-11-28T02:02:13.329Z,1.47
2022-11-28T02:04:42.834Z,1.46
2022-11-28T02:07:11.773Z,1.45
2022-11-28T02:09:40.397Z,1.44
2022-11-28T02:12:20.718Z,1.43
2022-11-28T02:15:46.609Z,1.42
2022-11-28T02:18:26.934Z,1.42
2022-11-28T02:21:25.039Z,1.43
2022-11-28T02:24:25.578Z,1.46
2022-11-28T02:27:27.791Z,1.48
2022-11-28T02:30:11.717Z,1.52
2022-11-28T02:32:55.584Z,1.55
2022-11-28T02:35:35.646Z,1.57
2022-11-28T02:38:23.241Z,1.61
2022-11-28T02:41:18.991Z,1.65
2022-11-28T02:44:11.732Z,1.71
2022-11-28T02:47:02.829Z,1.76
2022-11-28T02:49:49.608Z,1.80
2022-11-28T02:52:37.930Z,1.84
2022-11-28T02:55:08.478Z,1.88
2022-11-28T02:57:47.685Z,1.93
2022-11-28T03:00:32.558Z,1.98
2022-11-28T03:03:19.422Z,2.04
2022-11-28T03:06:23.121Z,2.09
2022-11-28T03:09:16.949Z,2.15
2022-11-28T03:12:04.577Z,2.19
2022-11-28T03:15:01.940Z,2.24
2022-11-28T03:17:52.078Z,2.26
2022-11-28T03:20:34.524Z,2.28
2022-11-28T03:23:23.548Z,2.30
2022-11-28T03:26:12.089Z,2.32
2022-11-28T03:28:51.998Z,2.36
2022-11-28T03:31:31.933Z,2.40
2022-11-28T03:34:02.292Z,2.45
2022-11-28T03:36:47.560Z,2.47
2022-11-28T03:39:22.140Z,2.50
2022-11-28T03:42:16.789Z,2.51
2022-11-28T03:45:06.600Z,2.52
2022-11-28T03:47:42.289Z,2.56
2022-11-28T03:50:25.889Z,2.57
2022-11-28T03:53:03.175Z,2.59
2022-11-28T03:55:34.284Z,2.60
2022-11-28T03:58:49.755Z,2.61
2022-11-28T04:01:48.066Z,2.63
2022-11-28T04:04:29.318Z,2.67
2022-11-28T04:07:43.505Z,2.68
2022-11-28T04:10:31.919Z,2.71
2022-11-28T04:13:23.964Z,2.74
2022-11-28T04:16:04.557Z,2.78
2022-11-28T04:19:09.684Z,2.80
2022-11-28T04:22:00.228Z,2.82
2022-11-28T04:24:42.343Z,2.84
2022-11-28T04:27:16.641Z,2.85
2022-11-28T04:29:50.001Z,2.88
2022-11-28T04:32:19.649Z,2.89
2022-11-28T04:34:55.398Z,2.90
2022-11-28T04:37:28.042Z,2.93
2022-11-28T04:39:57.059Z,2.95
2022-11-28T04:42:53.261Z,2.96
2022-11-28T04:45:30.413Z,2.98
2022-11-28T04:47:59.308Z,2.99
2022-11-28T04:51:01.698Z,2.98
2022-11-28T04:53:37.902Z,2.97
2022-11-28T04:56:20.730Z,2.97
2022-11-28T04:58:51.249Z,2.96
2022-11-28T05:01:27.295Z,2.95
2022-11-28T05:03:56.574Z,2.96
2022-11-28T05:06:32.478Z,2.95
2022-11-28T05:09:01.170Z,2.97
2022-11-28T05:11:29.934Z,2.99
2022-11-28T05:13:58.485Z,2.99
2022-11-28T05:16:27.196Z,2.99
2022-11-28T05:18:55.879Z,3.01
2022-11-28T05:21:24.623Z,3.03
2022-11-28T05:23:53.952Z,3.04
2022-11-28T05:26:22.619Z,3.06
2022-11-28T05:28:52.859Z,3.08
2022-11-28T05:31:22.032Z,3.10
2022-11-28T05:33:50.971Z,3.10
2022-11-28T05:36:19.481Z,3.12
2022-11-28T05:38:48.749Z,3.14
2022-11-28T05:41:24.393Z,3.15
2022-11-28T05:43:53.299Z,3.17
2022-11-28T05:46:22.109Z,3.18
2022-11-28T05:48:50.709Z,3.20
2022-11-28T05:51:19.936Z,3.22
2022-11-28T05:53:48.561Z,3.23
2022-11-28T05:56:23.097Z,3.25
2022-11-28T05:58:54.296Z,3.28
2022-11-28T06:01:28.557Z,3.31
2022-11-28T06:04:01.176Z,3.32
2022-11-28T06:06:33.600Z,3.32
2022-11-28T06:09:02.904Z,3.32
2022-11-28T06:11:33.187Z,3.34
2022-11-28T06:14:03.199Z,3.35
2022-11-28T06:16:32.858Z,3.35
2022-11-28T06:19:05.406Z,3.34
2022-11-28T06:21:34.350Z,3.31
2022-11-28T06:24:03.017Z,3.30
2022-11-28T06:26:31.598Z,3.29
2022-11-28T06:29:00.100Z,3.29
2022-11-28T06:31:30.412Z,3.28
2022-11-28T06:33:59.497Z,3.28
2022-11-28T06:36:30.876Z,3.26
2022-11-28T06:38:59.521Z,3.24
2022-11-28T06:41:28.030Z,3.22
2022-11-28T06:43:57.176Z,3.20
2022-11-28T06:46:25.893Z,3.16
2022-11-28T06:48:54.550Z,3.15
2022-11-28T06:51:23.194Z,3.13
2022-11-28T06:53:51.816Z,3.14
2022-11-28T06:56:20.839Z,3.15
2022-11-28T06:58:58.164Z,3.16
2022-11-28T07:01:31.434Z,3.18
2022-11-28T07:04:01.052Z,3.21
2022-11-28T07:06:29.842Z,3.24
2022-11-28T07:08:59.614Z,3.28
2022-11-28T07:11:31.499Z,3.31
2022-11-28T07:14:02.755Z,3.31
2022-11-28T07:16:33.553Z,3.32
2022-11-28T07:19:02.993Z,3.35
2022-11-28T07:21:32.657Z,3.38
2022-11-28T07:24:01.234Z,3.39
2022-11-28T07:26:30.846Z,3.42
2022-11-28T07:29:00.129Z,3.48
2022-11-28T07:31:32.356Z,3.54
2022-11-28T07:34:03.723Z,3.59
2022-11-28T07:36:32.786Z,3.63
2022-11-28T07:39:05.048Z,3.68
2022-11-28T07:41:33.626Z,3.72
2022-11-28T07:44:04.096Z,3.75
2022-11-28T07:46:34.334Z,3.78
2022-11-28T07:49:04.214Z,3.81
2022-11-28T07:51:34.173Z,3.83
2022-11-28T07:54:05.118Z,3.85
2022-11-28T07:57:10.831Z,3.85
2022-11-28T07:59:26.323Z,3.90
2022-11-28T08:01:55.003Z,3.93
2022-11-28T08:04:23.819Z,3.98
2022-11-28T08:06:52.441Z,4.02
2022-11-28T08:09:20.953Z,4.04
2022-11-28T08:11:51.373Z,4.07
2022-11-28T08:14:20.444Z,4.12
2022-11-28T08:16:49.660Z,4.20
2022-11-28T08:19:22.965Z,4.37
2022-11-28T08:21:53.478Z,4.52
2022-11-28T08:24:22.275Z,4.75
2022-11-28T08:26:50.762Z,4.98
2022-11-28T08:29:19.355Z,5.18
2022-11-28T08:31:47.842Z,5.34
2022-11-28T08:34:16.388Z,5.42
2022-11-28T08:36:45.054Z,5.43
2022-11-28T08:39:28.801Z,5.47
2022-11-28T08:41:58.945Z,5.57
2022-11-28T08:44:30.358Z,5.73
2022-11-28T08:46:59.182Z,5.88
2022-11-28T08:49:27.698Z,6.09
2022-11-28T08:51:56.248Z,6.31
2022-11-28T08:54:24.821Z,6.52
2022-11-28T08:56:53.401Z,6.69
2022-11-28T08:59:22.041Z,6.84
2022-11-28T09:01:54.000Z,6.93
2022-11-28T09:04:24.010Z,6.96
2022-11-28T09:06:52.764Z,6.97
2022-11-28T09:09:21.951Z,6.98
2022-11-28T09:11:50.569Z,6.94
2022-11-28T09:14:19.132Z,6.89
2022-11-28T09:16:48.535Z,6.84
2022-11-28T09:19:17.111Z,6.76
2022-11-28T09:21:49.314Z,6.66
2022-11-28T09:24:19.437Z,6.58
2022-11-28T09:26:48.108Z,6.53
2022-11-28T09:29:16.659Z,6.51
2022-11-28T09:31:47.502Z,6.49
2022-11-28T09:34:16.563Z,6.55
2022-11-28T09:36:45.127Z,6.64
2022-11-28T09:39:13.676Z,6.72
2022-11-28T09:42:10.723Z,6.74
2022-11-28T09:45:10.228Z,6.75
2022-11-28T09:47:43.384Z,6.76
2022-11-28T09:50:36.287Z,6.77
2022-11-28T09:53:37.563Z,6.79
2022-11-28T09:56:14.582Z,6.90
2022-11-28T09:58:50.043Z,7.02
2022-11-28T10:01:18.459Z,7.16
2022-11-28T10:04:21.105Z,7.29
2022-11-28T10:07:06.985Z,7.47
2022-11-28T10:10:00.152Z,7.66
2022-11-28T10:13:05.105Z,7.88
2022-11-28T10:15:48.855Z,8.15
2022-11-28T10:18:56.499Z,8.39
2022-11-28T10:21:37.455Z,8.65
2022-11-28T10:24:35.341Z,8.87
2022-11-28T10:27:06.144Z,9.08
2022-11-28T10:29:50.643Z,9.24
2022-11-28T10:32:34.952Z,9.38
2022-11-28T10:35:33.337Z,9.55
2022-11-28T10:38:02.274Z,9.73
2022-11-28T10:41:02.990Z,9.86
2022-11-28T10:44:02.898Z,10.05
2022-11-28T10:47:10.285Z,10.25
2022-11-28T10:50:06.753Z,10.43
2022-11-28T10:52:50.327Z,10.60
2022-11-28T10:55:53.254Z,10.73
2022-11-28T10:58:31.112Z,10.83
2022-11-28T11:01:00.464Z,10.97
2022-11-28T11:03:34.149Z,11.05
2022-11-28T11:06:03.087Z,11.17
2022-11-28T11:08:40.358Z,11.19
2022-11-28T11:11:27.835Z,11.10
2022-11-28T11:14:08.928Z,10.94
2022-11-28T11:16:49.290Z,10.79
2022-11-28T11:19:32.553Z,10.60
2022-11-28T11:22:12.830Z,10.44
2022-11-28T11:24:41.450Z,10.24
2022-11-28T11:27:22.909Z,10.08
2022-11-28T11:29:52.230Z,9.99
2022-11-28T11:32:29.640Z,9.94
2022-11-28T11:34:59.370Z,9.86
2022-11-28T11:37:37.598Z,9.77
2022-11-28T11:40:41.620Z,9.68
2022-11-28T11:43:31.926Z,9.57
2022-11-28T11:46:11.928Z,9.47
2022-11-28T11:48:43.948Z,9.41
2022-11-28T11:51:28.029Z,9.34
2022-11-28T11:54:19.363Z,9.30
2022-11-28T11:57:00.703Z,9.27
2022-11-28T11:59:46.004Z,9.20
2022-11-28T12:02:41.264Z,9.11
2022-11-28T12:05:16.528Z,9.03
2022-11-28T12:08:11.568Z,8.94
2022-11-28T12:10:51.599Z,8.82
2022-11-28T12:13:23.967Z,8.70
2022-11-28T12:16:31.020Z,8.57
2022-11-28T12:19:30.388Z,8.43
2022-11-28T12:22:14.492Z,8.30
2022-11-28T12:25:36.818Z,8.17
2022-11-28T12:28:37.767Z,8.04
2022-11-28T12:31:17.568Z,7.92
2022-11-28T12:34:21.597Z,7.83
2022-11-28T12:36:56.725Z,7.75
2022-11-28T12:39:56.873Z,7.68
2022-11-28T12:42:43.855Z,7.60
2022-11-28T12:45:28.748Z,7.53
2022-11-28T12:49:08.096Z,7.48
2022-11-28T12:51:52.185Z,7.41
2022-11-28T12:55:01.825Z,7.37
2022-11-28T12:58:11.502Z,7.30
2022-11-28T13:01:24.968Z,7.26
2022-11-28T13:04:11.479Z,7.17
2022-11-28T13:07:37.006Z,7.12
2022-11-28T13:10:27.886Z,7.04
2022-11-28T13:13:19.564Z,6.97
2022-11-28T13:16:29.171Z,6.89
2022-11-28T13:19:47.390Z,6.83
2022-11-28T13:22:24.568Z,6.78
2022-11-28T13:25:28.837Z,6.74
2022-11-28T13:28:18.294Z,6.68
2022-11-28T13:31:04.564Z,6.60
2022-11-28T13:34:00.492Z,6.54
2022-11-28T13:39:55.112Z,6.43
2022-11-28T13:43:02.503Z,6.36
2022-11-28T13:51:36.034Z,6.16
2022-11-28T13:54:22.907Z,6.11
2022-11-28T13:57:12.844Z,6.05
2022-11-28T13:59:48.655Z,5.99
2022-11-28T14:02:41.936Z,5.94
2022-11-28T14:05:29.077Z,5.88
2022-11-28T14:07:58.415Z,5.83
2022-11-28T14:11:08.557Z,5.78
2022-11-28T14:13:54.452Z,5.71
2022-11-28T14:17:05.005Z,5.63
2022-11-28T14:19:57.990Z,5.53
2022-11-28T14:22:55.335Z,5.43
2022-11-28T14:25:31.732Z,5.35
2022-11-28T14:28:07.203Z,5.28
2022-11-28T14:30:41.396Z,5.22
2022-11-28T14:33:40.060Z,5.13
2022-11-28T14:36:41.923Z,5.04
2022-11-28T14:39:13.623Z,4.95
2022-11-28T14:42:06.898Z,4.87
2022-11-28T14:44:57.266Z,4.76
2022-11-28T14:47:35.145Z,4.66
2022-11-28T14:50:09.918Z,4.57
2022-11-28T14:52:43.554Z,4.49
2022-11-28T14:55:12.200Z,4.41
2022-11-28T14:58:05.341Z,4.33
2022-11-28T15:00:56.379Z,4.24
2022-11-28T15:03:45.715Z,4.18
2022-11-28T15:06:22.260Z,4.12
2022-11-28T15:09:09.556Z,4.06
2022-11-28T15:12:00.369Z,3.99
2022-11-28T15:14:32.316Z,3.94
2022-11-28T15:17:05.487Z,3.90
2022-11-28T15:19:45.853Z,3.84
2022-11-28T15:22:32.646Z,3.80
2022-11-28T15:25:01.330Z,3.74
2022-11-28T15:27:30.008Z,3.68
2022-11-28T15:30:01.727Z,3.64
2022-11-28T15:32:31.977Z,3.59
2022-11-28T15:35:09.190Z,3.54
2022-11-28T15:37:53.057Z,3.47
2022-11-28T15:40:32.535Z,3.41
2022-11-28T15:43:09.387Z,3.37
2022-11-28T15:45:42.884Z,3.34
2022-11-28T15:48:52.584Z,3.30
2022-11-28T15:51:36.402Z,3.25
2022-11-28T15:54:35.596Z,3.21
2022-11-28T15:57:06.232Z,3.18
2022-11-28T15:59:35.447Z,3.18
2022-11-28T16:02:16.506Z,3.17
2022-11-28T16:04:46.969Z,3.19
2022-11-28T16:07:16.250Z,3.21
2022-11-28T16:10:17.362Z,3.22
2022-11-28T16:12:46.036Z,3.25
2022-11-28T16:15:22.640Z,3.27
2022-11-28T16:17:54.150Z,3.31
2022-11-28T16:20:37.608Z,3.36
2022-11-28T16:23:37.675Z,3.41
2022-11-28T16:26:38.550Z,3.47
2022-11-28T16:29:09.789Z,3.51
2022-11-28T16:31:39.084Z,3.56
2022-11-28T16:34:14.983Z,3.61
2022-11-28T16:36:48.465Z,3.66
2022-11-28T16:39:18.032Z,3.72
2022-11-28T16:42:06.253Z,3.77
2022-11-28T16:44:34.971Z,3.81
2022-11-28T16:47:03.734Z,3.84
2022-11-28T16:49:38.012Z,3.87
2022-11-28T16:52:21.760Z,3.91
2022-11-28T16:54:54.286Z,3.95
2022-11-28T16:57:26.553Z,3.98
2022-11-28T16:59:58.752Z,4.01
2022-11-28T17:02:27.466Z,4.04
2022-11-28T17:04:56.157Z,4.05
2022-11-28T17:07:25.441Z,4.06
2022-11-28T17:09:53.971Z,4.06
2022-11-28T17:12:34.748Z,4.06
2022-11-28T17:15:03.838Z,4.05
2022-11-28T17:17:36.559Z,4.04
2022-11-28T17:20:06.625Z,4.00
2022-11-28T17:22:41.543Z,3.97
2022-11-28T17:25:21.267Z,3.92
2022-11-28T17:27:49.828Z,3.87
2022-11-28T17:30:19.957Z,3.84
2022-11-28T17:32:48.627Z,3.80
2022-11-28T17:35:24.352Z,3.75
2022-11-28T17:37:53.059Z,3.69
2022-11-28T17:40:33.915Z,3.62
2022-11-28T17:43:03.913Z,3.56
2022-11-28T17:45:35.587Z,3.52
2022-11-28T17:48:04.380Z,3.47
2022-11-28T17:50:32.937Z,3.42
2022-11-28T17:53:01.621Z,3.39
2022-11-28T17:55:30.205Z,3.35
2022-11-28T17:57:59.310Z,3.33
2022-11-28T18:00:29.337Z,3.31
2022-11-28T18:02:57.984Z,3.26
2022-11-28T18:05:27.195Z,3.23
2022-11-28T18:07:55.826Z,3.20
2022-11-28T18:10:24.473Z,3.17
2022-11-28T18:12:53.406Z,3.14
2022-11-28T18:15:21.929Z,3.12
2022-11-28T18:17:50.497Z,3.10
2022-11-28T18:20:20.203Z,3.10
2022-11-28T18:22:48.806Z,3.10
2022-11-28T18:25:17.518Z,3.10
2022-11-28T18:27:46.096Z,3.08
2022-11-28T18:30:15.208Z,3.09
2022-11-28T18:32:43.973Z,3.09
2022-11-28T18:35:13.146Z,3.08
2022-11-28T18:37:41.726Z,3.07
2022-11-28T18:40:10.744Z,3.05
2022-11-28T18:42:40.160Z,3.02
2022-11-28T18:45:11.258Z,2.98
2022-11-28T18:47:39.891Z,2.94
2022-11-28T18:50:09.153Z,2.90
2022-11-28T18:52:37.769Z,2.85
2022-11-28T18:55:07.287Z,2.80
2022-11-28T18:57:37.078Z,2.75
2022-11-28T19:00:06.872Z,2.70
2022-11-28T19:02:35.511Z,2.64
2022-11-28T19:05:04.605Z,2.58
2022-11-28T19:07:33.329Z,2.52
2022-11-28T19:10:01.934Z,2.47
2022-11-28T19:12:30.616Z,2.40
2022-11-28T19:15:02.473Z,2.34
2022-11-28T19:17:31.384Z,2.28
2022-11-28T19:19:59.959Z,2.22
2022-11-28T19:22:28.559Z,2.16
2022-11-28T19:24:57.167Z,2.11
2022-11-28T19:27:25.890Z,2.06
2022-11-28T19:29:54.402Z,2.00
2022-11-28T19:32:22.946Z,1.93
2022-11-28T19:34:53.592Z,1.88
2022-11-28T19:37:22.184Z,1.82
2022-11-28T19:39:50.733Z,1.78
2022-11-28T19:42:19.371Z,1.75
2022-11-28T19:44:47.893Z,1.74
2022-11-28T19:47:16.483Z,1.72
2022-11-28T19:49:45.425Z,1.70
2022-11-28T19:52:14.233Z,1.69
2022-11-28T19:54:42.845Z,1.67
2022-11-28T19:57:11.557Z,1.66
2022-11-28T19:59:40.256Z,1.63
2022-11-28T20:02:10.114Z,1.59
2022-11-28T20:04:38.760Z,1.56
2022-11-28T20:07:07.457Z,1.53
2022-11-28T20:09:36.055Z,1.53
2022-11-28T20:12:05.193Z,1.53
2022-11-28T20:14:33.980Z,1.54
2022-11-28T20:17:02.712Z,1.54
2022-11-28T20:19:31.453Z,1.56
2022-11-28T20:22:01.369Z,1.57
2022-11-28T20:24:30.320Z,1.59
2022-11-28T20:26:58.907Z,1.63
2022-11-28T20:29:28.084Z,1.66
2022-11-28T20:31:57.434Z,1.70
2022-11-28T20:34:26.984Z,1.76
2022-11-28T20:36:55.548Z,1.79
2022-11-28T20:39:24.161Z,1.83
2022-11-28T20:41:52.771Z,1.88
2022-11-28T20:44:21.465Z,1.92
2022-11-28T20:46:50.117Z,1.96
2022-11-28T20:49:19.382Z,1.97
2022-11-28T20:51:48.218Z,2.00
2022-11-28T20:54:17.381Z,2.02
2022-11-28T20:57:19.042Z,2.04
2022-11-28T20:59:36.069Z,2.04
2022-11-28T21:02:04.708Z,2.05
2022-11-28T21:04:33.266Z,2.06
2022-11-28T21:07:01.802Z,2.09
2022-11-28T21:09:30.273Z,2.10
2022-11-28T21:11:59.624Z,2.13
2022-11-28T21:14:29.146Z,2.15
2022-11-28T21:16:58.858Z,2.18
2022-11-28T21:19:27.552Z,2.20
2022-11-28T21:21:56.077Z,2.24
2022-11-28T21:24:24.722Z,2.25
2022-11-28T21:26:54.819Z,2.28
2022-11-28T21:29:24.797Z,2.31
2022-11-28T21:31:54.023Z,2.33
2022-11-28T21:34:23.004Z,2.37
2022-11-28T21:36:51.766Z,2.40
2022-11-28T21:39:20.939Z,2.43
2022-11-28T21:41:51.137Z,2.46
2022-11-28T21:44:20.235Z,2.51
2022-11-28T21:46:48.874Z,2.54
2022-11-28T21:49:17.917Z,2.57
2022-11-28T21:51:46.617Z,2.60
2022-11-28T21:54:15.371Z,2.61
2022-11-28T21:56:44.020Z,2.62
2022-11-28T21:59:12.584Z,2.60
2022-11-28T22:01:41.352Z,2.58
2022-11-28T22:04:10.838Z,2.58
2022-11-28T22:06:40.129Z,2.57
2022-11-28T22:09:09.967Z,2.55
2022-11-28T22:11:39.561Z,2.53
2022-11-28T22:14:08.324Z,2.51
2022-11-28T22:16:37.246Z,2.49
2022-11-28T22:19:05.864Z,2.49
2022-11-28T22:21:54.881Z,2.50
2022-11-28T22:24:24.886Z,2.51
2022-11-28T22:26:53.796Z,2.49
2022-11-28T22:29:22.501Z,2.46
2022-11-28T22:31:51.138Z,2.43
2022-11-28T22:34:19.871Z,2.41
2022-11-28T22:36:48.416Z,2.39
2022-11-28T22:39:17.009Z,2.37
2022-11-28T22:41:45.591Z,2.35
2022-11-28T22:44:14.187Z,2.36
2022-11-28T22:46:42.775Z,2.37
2022-11-28T22:49:11.568Z,2.38
2022-11-28T22:51:40.717Z,2.36
2022-11-28T22:54:12.795Z,2.37
2022-11-28T22:56:41.530Z,2.36
2022-11-28T22:59:15.737Z,2.37
2022-11-28T23:01:44.422Z,2.39
2022-11-28T23:04:12.986Z,2.41
2022-11-28T23:06:41.858Z,2.44
2022-11-28T23:09:13.627Z,2.46
2022-11-28T23:11:43.199Z,2.46
2022-11-28T23:14:15.430Z,2.46
2022-11-28T23:16:45.292Z,2.44
2022-11-28T23:19:17.718Z,2.44
2022-11-28T23:21:49.095Z,2.42
2022-11-28T23:24:22.000Z,2.41
2022-11-28T23:26:52.035Z,2.40
2022-11-28T23:29:21.376Z,2.39
2022-11-28T23:31:50.106Z,2.36
2022-11-28T23:34:18.643Z,2.34
2022-11-28T23:36:47.620Z,2.34
2022-11-28T23:39:20.475Z,2.34
2022-11-28T23:41:50.313Z,2.34
2022-11-28T23:44:19.974Z,2.33
2022-11-28T23:46:48.876Z,2.33
2022-11-28T23:49:17.495Z,2.33
2022-11-28T23:51:46.056Z,2.33
2022-11-28T23:54:14.858Z,2.31
2022-11-28T23:56:43.794Z,2.30
2022-11-28T23:59:13.122Z,2.26
